Time;durP1;ratioP1;P1;durP2;ratioP2;P2;SDS_P1;SDS_P2;PMS_P1;PMS_P2;Temp;Humidity;BMP_temperature;BMP_pressure;BME280_temperature;BME280_humidity;BME280_pressure;Samples;Min_cycle;Max_cycle;Signal;HPM_P1;HPM_P2
2023/02/18 03:02:41;;;;;;;;;;;;;;;;;;;;;
2023/02/18 03:10:53;;;;;;;;;;;;;;;;;;;;;
2023/02/18 03:49:07;;;;;;;;;;;;;;;;;;6267409;22;19968;-96
2023/02/18 05:13:54;;;;;;;;;;;;;;;;;;6122699;23;19921;-96
2023/02/18 06:10:24;;;;;;;;;;;;;;;;;;6279225;22;19954;-95
2023/02/18 06:13:01;;;;;;;;;;;;;;;;;;6227877;22;19915;-94
2023/02/18 07:38:12;;;;;;;;;;;;;;;;;;5799096;22;10219287;-91
2023/02/18 07:40:40;;;;;;;;;;;;;;;;;;6197803;23;19920;-95
2023/02/18 07:43:09;;;;;;;;;;;;;;;;;;6175169;23;19924;-96
2023/02/18 07:45:37;;;;;;;;;;;;;;;;;;6226195;23;19916;-94
2023/02/18 07:48:03;;;;;;;;;;;;;;;;;;6199997;23;19973;-89
2023/02/18 07:50:33;;;;;;;;;;;;;;;;;;6225169;23;19971;-90
2023/02/18 07:53:02;;;;;;;;;;;;;;;;;;6199842;23;19923;-91
2023/02/18 08:04:38;;;;;;;;;;;;;;;;;;6114036;23;19933;-94
2023/02/18 08:07:13;;;;;;;;;;;;;;;;;;6084303;23;19932;-94
2023/02/18 08:09:42;;;;;;;;;;;;;;;;;;6106883;23;19921;-93
2023/02/18 08:12:11;;;;;;;;;;;;;;;;;;6140518;23;19942;-94
2023/02/18 08:14:50;;;;;;;;;;;;;;;;;;;;;
2023/02/18 08:17:18;;;;;;;;;;;;;;;;;;6141080;23;19917;-94
2023/02/18 08:19:47;;;;;;;;;;;;;;;;;;6140452;23;19916;-92
2023/02/18 08:27:40;;;;;;;;;;;;;;;;;;6283896;22;19926;-91
2023/02/18 08:35:48;;;;;;;;;;;;;;;;;;6284937;22;19942;-94
2023/02/18 08:43:26;;;;;;;;;;;;;;;;;;6219952;23;20330;-95
2023/02/18 08:45:52;;;;;;;;;;;;;;;;;;6192586;23;19966;-90
2023/02/18 08:48:39;;;;;;;;;;;;;;;;;;6171068;23;20215;-94
2023/02/18 08:51:04;;;;;;;;;;;;;;;;;;6195711;23;19920;-92
2023/02/18 08:53:30;;;;;;;;;;;;;;;;;;6170442;23;19923;-92
2023/02/18 08:55:56;;;;;;;;;;;;;;;;;;6191510;23;19916;-90
2023/02/18 08:58:22;;;;;;;;;;;;;;;;;;6190798;23;19927;-91
2023/02/18 09:00:48;;;;;;;;;;;;;;;;;;6191790;23;19920;-91
2023/02/18 09:03:14;;;;;;;;;;;;;;;;;;6166097;23;19965;-91
2023/02/18 09:05:43;;;;;;;;;;;;;;;;;;6167981;23;20249;-92
2023/02/18 09:08:08;;;;;;;;;;;;;;;;;;6170204;23;19926;-93
2023/02/18 09:10:34;;;;;;;;;;;;;;;;;;6168045;23;19958;-93
2023/02/18 09:13:00;;;;;;;;;;;;;;;;;;6168333;23;19916;-92
2023/02/18 09:15:33;;;;;;;;;;;;;;;;;;6166085;23;19915;-93
2023/02/18 09:17:59;;;;;;;;;;;;;;;;;;6193615;23;19916;-95
2023/02/18 09:20:25;;;;;;;;;;;;;;;;;;6166473;23;19948;-92
2023/02/18 09:22:54;;;;;;;;;;;;;;;;;;6191703;23;20213;-95
2023/02/18 09:25:41;;;;;;;;;;;;;;;;;;6169537;23;19998;-94
2023/02/18 09:33:54;;;;;;;;;;;;;;;;;;;;;
2023/02/18 09:36:30;;;;;;;;;;;;;;;;;;6189133;23;19916;-95
2023/02/18 09:39:12;;;;;;;;;;;;;;;;;;6167471;23;20368;-95
2023/02/18 09:41:38;;;;;;;;;;;;;;;;;;6191998;23;19935;-93
2023/02/18 09:44:06;;;;;;;;;;;;;;;;;;6166874;23;20039;-94
2023/02/18 09:46:38;;;;;;;;;;;;;;;;;;6166182;23;19916;-93
2023/02/18 09:52:10;;;;;;;;;;;;;;;;;;6181766;23;19916;-94
2023/02/18 09:54:39;;;;;;;;;;;;;;;;;;6167843;23;19951;-93
2023/02/18 09:57:08;;;;;;;;;;;;;;;;;;6191986;23;19947;-95
2023/02/18 09:59:55;;;;;;;;;;;;;;;;;;6167351;23;19935;-96
2023/02/18 10:02:32;;;;;;;;;;;;;;;;;;6217819;23;19917;-92
2023/02/18 10:04:58;;;;;;;;;;;;;;;;;;6190747;23;20388;-92
2023/02/18 10:07:25;;;;;;;;;;;;;;;;;;6164459;23;19920;-93
2023/02/18 10:09:51;;;;;;;;;;;;;;;;;;6165891;23;19947;-92
2023/02/18 10:12:16;;;;;;;;;;;;;;;;;;6165908;23;20318;-93
2023/02/18 10:14:42;;;;;;;;;;;;;;;;;;6190712;23;19938;-92
2023/02/18 10:17:08;;;;;;;;;;;;;;;;;;6191056;23;20144;-93
2023/02/18 10:19:34;;;;;;;;;;;;;;;;;;6190524;23;19939;-93
2023/02/18 10:22:00;;;;;;;;;;;;;;;;;;6190697;23;19916;-92
2023/02/18 10:24:29;;;;;;;;;;;;;;;;;;6168466;23;19939;-95
2023/02/18 10:26:54;;;;;;;;;;;;;;;;;;6191175;23;19916;-92
2023/02/18 10:29:25;;;;;;;;;;;;;;;;;;6164845;23;19954;-92
2023/02/18 10:31:51;;;;;;;;;;;;;;;;;;6165764;23;19958;-93
2023/02/18 10:34:17;;;;;;;;;;;;;;;;;;6165624;23;19916;-93
2023/02/18 10:36:43;;;;;;;;;;;;;;;;;;6189729;23;19920;-95
2023/02/18 10:42:13;;;;;;;;;;;;;;;;;;6213811;22;19974;-91
2023/02/18 10:44:38;;;;;;;;;;;;;;;;;;6160832;23;20290;-91
2023/02/18 10:47:04;;;;;;;;;;;;;;;;;;6135554;23;19995;-90
2023/02/18 10:49:30;;;;;;;;;;;;;;;;;;6135397;23;19927;-91
2023/02/18 10:51:56;;;;;;;;;;;;;;;;;;6135549;23;19999;-93
2023/02/18 10:54:22;;;;;;;;;;;;;;;;;;6160624;23;19916;-92
2023/02/18 10:56:48;;;;;;;;;;;;;;;;;;6135992;23;19916;-91
2023/02/18 10:59:14;;;;;;;;;;;;;;;;;;6136235;23;19916;-92
2023/02/18 11:01:40;;;;;;;;;;;;;;;;;;6161275;23;20293;-93
2023/02/18 11:04:06;;;;;;;;;;;;;;;;;;6136053;23;19939;-94
2023/02/18 11:06:32;;;;;;;;;;;;;;;;;;6193842;23;19923;-94
2023/02/18 11:11:46;;;;;;;;;;;;;;;;;;6186877;23;19916;-95
2023/02/18 11:14:15;;;;;;;;;;;;;;;;;;6160495;23;19996;-94
2023/02/18 11:16:41;;;;;;;;;;;;;;;;;;6167420;23;19908;-93
2023/02/18 11:19:20;;;;;;;;;;;;;;;;;;6137829;23;19922;-95
2023/02/18 11:21:49;;;;;;;;;;;;;;;;;;6136694;23;19916;-94
2023/02/18 11:24:30;;;;;;;;;;;;;;;;;;6162002;23;19917;-93
2023/02/18 11:27:08;;;;;;;;;;;;;;;;;;6137753;23;19970;-92
2023/02/18 11:29:34;;;;;;;;;;;;;;;;;;6136199;23;19931;-94
2023/02/18 11:32:00;;;;;;;;;;;;;;;;;;6136734;23;19916;-89
2023/02/18 11:34:26;;;;;;;;;;;;;;;;;;6135462;23;19916;-92
2023/02/18 11:36:52;;;;;;;;;;;;;;;;;;6160687;23;19916;-92
2023/02/18 11:39:23;;;;;;;;;;;;;;;;;;6135626;23;19916;-94
2023/02/18 11:45:10;;;;;;;;;;;;;;;;;;6203605;23;19959;-95
2023/02/18 11:47:46;;;;;;;;;;;;;;;;;;;;;
2023/02/18 12:17:51;;;;;;;;;;;;;;;;;;6071283;23;19918;-94
2023/02/18 12:20:17;;;;;;;;;;;;;;;;;;6137973;23;19954;-91
2023/02/18 12:22:43;;;;;;;;;;;;;;;;;;6162197;23;19991;-94
2023/02/18 12:25:09;;;;;;;;;;;;;;;;;;6137566;23;20220;-93
2023/02/18 12:27:35;;;;;;;;;;;;;;;;;;6137302;23;19967;-92
2023/02/18 12:30:01;;;;;;;;;;;;;;;;;;6136469;23;19956;-91
2023/02/18 12:32:27;;;;;;;;;;;;;;;;;;6136595;23;19916;-92
2023/02/18 12:34:56;;;;;;;;;;;;;;;;;;6187877;23;19916;-92
2023/02/18 12:48:41;;;;;;;;;;;;;;;;;;6312611;22;19930;-95
2023/02/18 12:51:07;;;;;;;;;;;;;;;;;;6262096;22;19914;-95
2023/02/18 12:53:52;;;;;;;;;;;;;;;;;;;;;
2023/02/18 12:56:21;;;;;;;;;;;;;;;;;;6285485;22;19918;-93
2023/02/18 12:58:47;;;;;;;;;;;;;;;;;;6282656;22;20232;-92
2023/02/18 13:01:13;;;;;;;;;;;;;;;;;;6282428;22;20282;-90
2023/02/18 13:03:39;;;;;;;;;;;;;;;;;;6282179;22;19915;-91
2023/02/18 13:06:05;;;;;;;;;;;;;;;;;;6257153;22;20020;-91
2023/02/18 13:08:31;;;;;;;;;;;;;;;;;;6256380;22;19969;-90
2023/02/18 13:10:57;;;;;;;;;;;;;;;;;;6309445;22;20321;-90
2023/02/18 13:13:23;;;;;;;;;;;;;;;;;;6282113;22;19969;-92
2023/02/18 13:15:50;;;;;;;;;;;;;;;;;;6282599;22;19950;-92
2023/02/18 13:18:19;;;;;;;;;;;;;;;;;;6257626;22;19946;-95
2023/02/18 14:54:23;;;;;;;;;;;;;;;;;;6287556;22;19919;-92
2023/02/18 14:56:49;;;;;;;;;;;;;;;;;;6261414;22;20273;-93
2023/02/18 14:59:15;;;;;;;;;;;;;;;;;;6263524;22;19915;-94
2023/02/18 15:01:41;;;;;;;;;;;;;;;;;;6263417;22;20005;-95
2023/02/18 15:04:10;;;;;;;;;;;;;;;;;;6290164;22;19960;-94
2023/02/18 15:06:35;;;;;;;;;;;;;;;;;;6286396;22;19921;-94
2023/02/18 15:09:01;;;;;;;;;;;;;;;;;;6256778;22;20308;-92
2023/02/18 15:11:27;;;;;;;;;;;;;;;;;;6255008;22;20324;-93
2023/02/18 15:13:53;;;;;;;;;;;;;;;;;;6254768;22;19926;-92
2023/02/18 15:16:19;;;;;;;;;;;;;;;;;;6280854;22;19915;-92
2023/02/18 15:18:45;;;;;;;;;;;;;;;;;;6280324;22;19914;-91
2023/02/18 15:21:11;;;;;;;;;;;;;;;;;;6254581;22;19915;-93
2023/02/18 15:23:37;;;;;;;;;;;;;;;;;;6255401;22;20240;-94
2023/02/18 15:26:03;;;;;;;;;;;;;;;;;;6255616;22;19922;-95
2023/02/18 15:28:31;;;;;;;;;;;;;;;;;;6255143;22;19993;-95
2023/02/18 15:30:57;;;;;;;;;;;;;;;;;;6256581;22;19919;-95
2023/02/18 15:33:23;;;;;;;;;;;;;;;;;;6283363;22;20378;-92
2023/02/18 15:35:49;;;;;;;;;;;;;;;;;;6256299;22;19915;-93
2023/02/18 15:38:18;;;;;;;;;;;;;;;;;;6284954;22;19915;-94
2023/02/18 15:52:08;;;;;;;;;;;;;;;;;;6300523;22;19919;-94
2023/02/18 16:14:07;;;;;;;;;;;;;;;;;;6311305;22;19954;-94
2023/02/18 16:19:21;;;;;;;;;;;;;;;;;;6284057;22;19919;-93
2023/02/18 16:24:33;;;;;;;;;;;;;;;;;;6262125;22;19919;-93
2023/02/18 16:27:05;;;;;;;;;;;;;;;;;;6259010;22;19964;-94
2023/02/18 16:32:40;;;;;;;;;;;;;;;;;;;;;
2023/02/18 16:57:02;;;;;;;;;;;;;;;;;;6298584;22;19923;-95
2023/02/18 16:59:28;;;;;;;;;;;;;;;;;;6256684;22;19915;-92
2023/02/18 17:01:54;;;;;;;;;;;;;;;;;;6281958;22;19915;-92
2023/02/18 17:04:22;;;;;;;;;;;;;;;;;;6281978;22;19919;-92
2023/02/18 17:06:48;;;;;;;;;;;;;;;;;;6281996;22;19922;-91
2023/02/18 17:09:15;;;;;;;;;;;;;;;;;;6308566;22;19918;-91
2023/02/18 17:11:41;;;;;;;;;;;;;;;;;;6255369;22;20003;-90
2023/02/18 17:14:07;;;;;;;;;;;;;;;;;;6281801;22;19934;-90
2023/02/18 17:16:33;;;;;;;;;;;;;;;;;;6254899;22;19915;-90
2023/02/18 17:18:59;;;;;;;;;;;;;;;;;;6255598;22;19915;-93
2023/02/18 17:21:25;;;;;;;;;;;;;;;;;;6256687;22;19915;-93
2023/02/18 17:23:51;;;;;;;;;;;;;;;;;;6256424;22;19915;-93
2023/02/18 17:26:17;;;;;;;;;;;;;;;;;;6282528;22;19969;-92
2023/02/18 17:28:43;;;;;;;;;;;;;;;;;;6256714;22;19923;-92
2023/02/18 17:31:12;;;;;;;;;;;;;;;;;;6283035;22;19919;-91
2023/02/18 17:33:38;;;;;;;;;;;;;;;;;;6257021;22;19941;-92
2023/02/18 17:36:04;;;;;;;;;;;;;;;;;;6256766;22;20275;-92
2023/02/18 17:38:31;;;;;;;;;;;;;;;;;;6256852;22;19915;-92
2023/02/18 17:40:57;;;;;;;;;;;;;;;;;;6282205;22;19915;-91
2023/02/18 17:43:24;;;;;;;;;;;;;;;;;;6256779;22;20387;-92
2023/02/18 17:45:50;;;;;;;;;;;;;;;;;;6255072;22;20439;-92
2023/02/18 17:48:16;;;;;;;;;;;;;;;;;;6256091;22;19919;-91
2023/02/18 17:50:42;;;;;;;;;;;;;;;;;;6255747;22;19919;-92
2023/02/18 17:53:08;;;;;;;;;;;;;;;;;;6255873;22;19914;-91
2023/02/18 17:55:34;;;;;;;;;;;;;;;;;;6255509;22;19915;-91
2023/02/18 17:58:00;;;;;;;;;;;;;;;;;;6280686;22;19918;-92
2023/02/18 18:00:26;;;;;;;;;;;;;;;;;;6256087;22;19922;-93
2023/02/18 18:02:52;;;;;;;;;;;;;;;;;;6253947;22;19950;-91
2023/02/18 18:05:18;;;;;;;;;;;;;;;;;;6255363;22;19922;-92
2023/02/18 18:07:43;;;;;;;;;;;;;;;;;;6281887;22;19915;-93
2023/02/18 18:12:48;;;;;;;;;;;;;;;;;;6287382;22;19950;-90
2023/02/18 18:15:14;;;;;;;;;;;;;;;;;;6255801;22;20372;-90
2023/02/18 18:17:40;;;;;;;;;;;;;;;;;;6255380;22;19961;-93
2023/02/18 18:20:06;;;;;;;;;;;;;;;;;;6281280;22;19915;-93
2023/02/18 18:22:32;;;;;;;;;;;;;;;;;;6255518;22;20370;-91
2023/02/18 18:24:58;;;;;;;;;;;;;;;;;;6255024;22;20327;-90
2023/02/18 18:27:24;;;;;;;;;;;;;;;;;;6280809;22;19922;-89
2023/02/18 18:29:50;;;;;;;;;;;;;;;;;;6254279;22;19923;-90
2023/02/18 18:32:15;;;;;;;;;;;;;;;;;;6280355;22;19924;-92
2023/02/18 18:34:43;;;;;;;;;;;;;;;;;;6255156;22;19918;-90
2023/02/18 18:37:08;;;;;;;;;;;;;;;;;;6280703;22;19915;-90
2023/02/18 18:39:34;;;;;;;;;;;;;;;;;;6254185;22;20355;-92
2023/02/18 18:42:00;;;;;;;;;;;;;;;;;;6255716;22;19915;-92
2023/02/18 18:44:26;;;;;;;;;;;;;;;;;;6281987;22;19934;-91
2023/02/18 18:46:52;;;;;;;;;;;;;;;;;;6281021;22;19914;-90
2023/02/18 18:49:18;;;;;;;;;;;;;;;;;;6280701;22;19945;-91
2023/02/18 18:51:45;;;;;;;;;;;;;;;;;;6255248;22;19957;-91
2023/02/18 18:54:11;;;;;;;;;;;;;;;;;;6255488;22;19960;-91
2023/02/18 18:56:37;;;;;;;;;;;;;;;;;;6254583;22;19950;-91
2023/02/18 18:59:03;;;;;;;;;;;;;;;;;;6280443;22;19985;-92
2023/02/18 19:13:07;;;;;;;;;;;;;;;;;;6246363;22;20337;-96
2023/02/18 19:15:34;;;;;;;;;;;;;;;;;;6219881;23;19923;-95
2023/02/18 19:18:00;;;;;;;;;;;;;;;;;;6195443;22;19915;-94
2023/02/18 19:20:45;;;;;;;;;;;;;;;;;;;;;
2023/02/18 19:23:23;;;;;;;;;;;;;;;;;;6210138;23;19916;-93
2023/02/18 19:25:49;;;;;;;;;;;;;;;;;;6194073;23;19923;-93
2023/02/18 19:28:15;;;;;;;;;;;;;;;;;;6219686;23;20014;-93
2023/02/18 19:33:33;;;;;;;;;;;;;;;;;;6243451;23;19923;-94
2023/02/18 19:36:02;;;;;;;;;;;;;;;;;;6194698;23;19916;-95
2023/02/18 19:38:28;;;;;;;;;;;;;;;;;;6194664;23;19916;-94
2023/02/18 19:40:55;;;;;;;;;;;;;;;;;;6197327;23;19977;-91
2023/02/18 19:43:21;;;;;;;;;;;;;;;;;;6219790;23;20272;-91
2023/02/18 19:45:47;;;;;;;;;;;;;;;;;;6246872;23;19920;-92
2023/02/18 19:56:34;;;;;;;;;;;;;;;;;;6251565;22;19969;-92
2023/02/18 19:59:00;;;;;;;;;;;;;;;;;;6224766;22;19926;-92
2023/02/18 20:01:25;;;;;;;;;;;;;;;;;;6225510;22;19915;-92
2023/02/18 20:03:52;;;;;;;;;;;;;;;;;;6225134;22;20015;-93
2023/02/18 20:06:18;;;;;;;;;;;;;;;;;;6225153;22;19922;-93
2023/02/18 20:08:44;;;;;;;;;;;;;;;;;;6225198;22;19925;-94
2023/02/18 20:11:13;;;;;;;;;;;;;;;;;;6225681;22;19977;-93
2023/02/18 20:13:39;;;;;;;;;;;;;;;;;;6250607;22;19915;-92
2023/02/18 20:16:05;;;;;;;;;;;;;;;;;;6226134;22;19990;-91
2023/02/18 20:18:31;;;;;;;;;;;;;;;;;;6279345;22;19919;-92
2023/02/18 20:20:57;;;;;;;;;;;;;;;;;;6252628;22;19921;-93
2023/02/18 20:23:23;;;;;;;;;;;;;;;;;;6226801;22;19916;-91
2023/02/18 20:25:49;;;;;;;;;;;;;;;;;;6226837;22;19915;-93
2023/02/18 20:28:15;;;;;;;;;;;;;;;;;;6252173;22;19924;-93
2023/02/18 20:30:41;;;;;;;;;;;;;;;;;;6226555;22;19930;-94
2023/02/18 20:33:15;;;;;;;;;;;;;;;;;;6252144;22;19915;-95
2023/02/18 20:35:46;;;;;;;;;;;;;;;;;;6227220;22;19915;-96
2023/02/18 20:40:58;;;;;;;;;;;;;;;;;;6279426;22;19919;-96
2023/02/18 20:43:33;;;;;;;;;;;;;;;;;;6252626;22;19922;-96
2023/02/18 20:45:59;;;;;;;;;;;;;;;;;;6226263;22;19920;-93
2023/02/18 20:48:25;;;;;;;;;;;;;;;;;;6251842;22;19919;-94
2023/02/18 20:50:51;;;;;;;;;;;;;;;;;;6252098;22;19965;-94
2023/02/18 20:53:19;;;;;;;;;;;;;;;;;;6252146;22;19915;-96
2023/02/18 20:55:46;;;;;;;;;;;;;;;;;;6252193;22;19919;-92
2023/02/18 20:58:15;;;;;;;;;;;;;;;;;;6251434;22;19930;-95
2023/02/18 21:00:41;;;;;;;;;;;;;;;;;;6251634;22;20351;-94
2023/02/18 21:03:08;;;;;;;;;;;;;;;;;;6281769;22;19903;-94
2023/02/18 21:05:34;;;;;;;;;;;;;;;;;;6261000;22;19950;-94
2023/02/18 21:07:59;;;;;;;;;;;;;;;;;;6251575;22;19969;-93
2023/02/18 21:10:26;;;;;;;;;;;;;;;;;;6252334;22;19937;-92
2023/02/18 21:15:44;;;;;;;;;;;;;;;;;;6219681;22;19915;-96
2023/02/18 21:18:21;;;;;;;;;;;;;;;;;;6281002;22;19903;-92
2023/02/18 21:49:55;;;;;;;;;;;;;;;;;;6248642;22;20360;-93
2023/02/18 21:52:21;;;;;;;;;;;;;;;;;;6225343;23;19919;-94
